createdAt,value
2019-01-02T00:00:22.595Z,6.30
2019-01-02T00:02:51.419Z,6.30
2019-01-02T00:05:20.071Z,6.30
2019-01-02T00:07:48.805Z,6.30
2019-01-02T00:10:18.239Z,6.30
2019-01-02T00:12:46.938Z,6.40
2019-01-02T00:15:15.968Z,6.30
2019-01-02T00:17:44.816Z,6.30
2019-01-02T00:20:15.851Z,6.40
2019-01-02T00:22:44.822Z,6.40
2019-01-02T00:25:13.883Z,6.40
2019-01-02T00:27:42.629Z,6.40
2019-01-02T00:30:11.576Z,6.40
2019-01-02T00:32:40.717Z,6.40
2019-01-02T00:35:09.786Z,6.50
2019-01-02T00:37:39.447Z,6.50
2019-01-02T00:40:10.808Z,6.50
2019-01-02T00:42:39.675Z,6.50
2019-01-02T00:45:09.064Z,6.50
2019-01-02T00:47:38.214Z,6.40
2019-01-02T00:50:10.177Z,6.40
2019-01-02T00:52:39.845Z,6.40
2019-01-02T00:55:09.282Z,6.50
2019-01-02T00:57:38.424Z,6.60
2019-01-02T01:00:13.231Z,6.50
2019-01-02T01:02:42.300Z,6.50
2019-01-02T01:05:11.199Z,6.50
2019-01-02T01:07:40.451Z,6.50
2019-01-02T01:10:12.117Z,6.50
2019-01-02T01:12:41.154Z,6.50
2019-01-02T01:15:10.473Z,6.50
2019-01-02T01:17:40.026Z,6.50
2019-01-02T01:20:11.660Z,6.50
2019-01-02T01:22:40.424Z,6.50
2019-01-02T01:25:09.669Z,6.50
2019-01-02T01:27:38.376Z,6.50
2019-01-02T01:30:10.436Z,6.60
2019-01-02T01:32:39.654Z,6.60
2019-01-02T01:35:10.693Z,6.60
2019-01-02T01:37:41.648Z,6.60
2019-01-02T01:40:11.952Z,6.60
2019-01-02T01:42:40.693Z,6.50
2019-01-02T01:45:11.114Z,6.50
2019-01-02T01:47:39.917Z,6.50
2019-01-02T01:50:10.477Z,6.50
2019-01-02T01:52:39.194Z,6.50
2019-01-02T01:55:08.220Z,6.40
2019-01-02T01:57:37.737Z,6.50
2019-01-02T02:00:09.541Z,6.50
2019-01-02T02:02:38.874Z,6.50
2019-01-02T02:05:09.705Z,6.50
2019-01-02T02:07:38.331Z,6.60
2019-01-02T02:10:14.015Z,6.50
2019-01-02T02:12:43.340Z,6.50
2019-01-02T02:15:12.206Z,6.50
2019-01-02T02:17:41.397Z,6.40
2019-01-02T02:20:12.169Z,6.40
2019-01-02T02:22:41.217Z,6.40
2019-01-02T02:25:12.880Z,6.30
2019-01-02T02:27:42.173Z,6.30
2019-01-02T02:30:13.496Z,6.30
2019-01-02T02:32:42.813Z,6.30
2019-01-02T02:35:12.489Z,6.30
2019-01-02T02:37:40.988Z,6.30
2019-01-02T02:40:12.367Z,6.30
2019-01-02T02:42:41.652Z,6.30
2019-01-02T02:45:12.185Z,6.30
2019-01-02T02:47:41.495Z,6.30
2019-01-02T02:50:13.361Z,6.40
2019-01-02T02:52:42.052Z,6.40
2019-01-02T02:55:14.022Z,6.40
2019-01-02T02:57:43.115Z,6.40
2019-01-02T03:00:14.203Z,6.40
2019-01-02T03:02:43.006Z,6.40
2019-01-02T03:05:13.583Z,6.40
2019-01-02T03:07:42.778Z,6.40
2019-01-02T03:10:14.260Z,6.40
2019-01-02T03:12:43.177Z,6.40
2019-01-02T03:15:12.830Z,6.40
2019-01-02T03:17:41.592Z,6.50
2019-01-02T03:20:12.570Z,6.50
2019-01-02T03:22:42.418Z,6.50
2019-01-02T03:25:13.166Z,6.50
2019-01-02T03:27:42.901Z,6.40
2019-01-02T03:30:16.500Z,6.40
2019-01-02T03:32:45.748Z,6.40
2019-01-02T03:35:14.917Z,6.40
2019-01-02T03:37:43.992Z,6.40
2019-01-02T03:40:13.573Z,6.40
2019-01-02T03:42:42.691Z,6.40
2019-01-02T03:45:14.699Z,6.40
2019-01-02T03:47:43.449Z,6.40
2019-01-02T03:50:14.792Z,6.50
2019-01-02T03:52:44.231Z,6.50
2019-01-02T03:55:12.945Z,6.50
2019-01-02T03:57:41.709Z,6.50
2019-01-02T04:00:14.128Z,6.50
2019-01-02T04:02:43.466Z,6.50
2019-01-02T04:05:15.175Z,6.50
2019-01-02T04:07:46.713Z,6.50
2019-01-02T04:10:15.510Z,6.50
2019-01-02T04:12:44.793Z,6.50
2019-01-02T04:15:13.677Z,6.50
2019-01-02T04:17:42.480Z,6.50
2019-01-02T04:20:11.604Z,6.50
2019-01-02T04:22:40.312Z,6.50
2019-01-02T04:25:09.442Z,6.50
2019-01-02T04:27:37.989Z,6.50
2019-01-02T04:30:13.064Z,6.50
2019-01-02T04:32:42.301Z,6.50
2019-01-02T04:35:11.728Z,6.50
2019-01-02T04:37:40.484Z,6.50
2019-01-02T04:40:11.935Z,6.50
2019-01-02T04:42:40.626Z,6.50
2019-01-02T04:45:11.485Z,6.50
2019-01-02T04:47:40.469Z,6.50
2019-01-02T04:50:11.677Z,6.50
2019-01-02T04:52:40.488Z,6.40
2019-01-02T04:55:09.372Z,6.40
2019-01-02T04:57:38.066Z,6.40
2019-01-02T05:00:12.545Z,6.40
2019-01-02T05:02:41.838Z,6.40
2019-01-02T05:05:10.689Z,6.30
2019-01-02T05:07:39.846Z,6.30
2019-01-02T05:10:11.214Z,6.30
2019-01-02T05:12:40.010Z,6.30
2019-01-02T05:15:10.667Z,6.30
2019-01-02T05:17:39.455Z,6.40
2019-01-02T05:20:11.310Z,6.40
2019-01-02T05:22:40.571Z,6.40
2019-01-02T05:25:09.816Z,6.40
2019-01-02T05:27:38.747Z,6.40
2019-01-02T05:30:12.800Z,6.40
2019-01-02T05:32:41.575Z,6.50
2019-01-02T05:35:10.683Z,6.40
2019-01-02T05:37:39.429Z,6.40
2019-01-02T05:40:11.296Z,6.40
2019-01-02T05:42:39.948Z,6.40
2019-01-02T05:45:09.184Z,6.30
2019-01-02T05:47:38.006Z,6.30
2019-01-02T05:50:08.502Z,6.30
2019-01-02T05:52:37.775Z,6.30
2019-01-02T05:55:07.228Z,6.30
2019-01-02T05:57:36.504Z,6.30
2019-01-02T06:00:10.874Z,6.30
2019-01-02T06:02:39.938Z,6.30
2019-01-02T06:05:08.907Z,6.30
2019-01-02T06:07:38.223Z,6.20
2019-01-02T06:10:09.959Z,6.20
2019-01-02T06:12:38.799Z,6.10
2019-01-02T06:15:11.366Z,6.10
2019-01-02T06:17:40.134Z,6.10
2019-01-02T06:20:12.147Z,6.10
2019-01-02T06:22:41.337Z,6.00
2019-01-02T06:25:10.166Z,6.00
2019-01-02T06:27:39.379Z,6.00
2019-01-02T06:30:11.359Z,6.00
2019-01-02T06:32:40.122Z,5.90
2019-01-02T06:35:09.394Z,5.90
2019-01-02T06:37:38.217Z,5.80
2019-01-02T06:40:10.074Z,5.80
2019-01-02T06:42:39.102Z,5.80
2019-01-02T06:45:10.338Z,5.90
2019-01-02T06:47:39.016Z,5.90
2019-01-02T06:50:14.214Z,5.90
2019-01-02T06:52:42.971Z,5.90
2019-01-02T06:55:11.553Z,5.90
2019-01-02T06:57:40.136Z,6.00
2019-01-02T07:00:15.177Z,5.90
2019-01-02T07:02:43.748Z,6.00
2019-01-02T07:05:12.999Z,6.10
2019-01-02T07:07:41.859Z,6.00
2019-01-02T07:10:10.705Z,6.00
2019-01-02T07:12:39.375Z,6.00
2019-01-02T07:15:09.979Z,6.00
2019-01-02T07:17:38.403Z,5.90
2019-01-02T07:20:09.958Z,5.90
2019-01-02T07:22:38.953Z,5.90
2019-01-02T07:25:08.954Z,5.90
2019-01-02T07:27:37.740Z,5.90
2019-01-02T07:30:18.228Z,5.90
2019-01-02T07:32:46.780Z,5.80
2019-01-02T07:35:51.119Z,5.80
2019-01-02T07:38:34.763Z,5.80
2019-01-02T07:41:08.776Z,5.80
2019-01-02T07:43:51.880Z,5.80
2019-01-02T07:46:42.713Z,5.80
2019-01-02T07:49:39.868Z,5.90
2019-01-02T07:52:11.725Z,5.80
2019-01-02T07:54:55.048Z,5.80
2019-01-02T07:57:44.607Z,5.90
2019-01-02T08:00:24.983Z,5.90
2019-01-02T08:03:08.686Z,5.90
2019-01-02T08:05:59.590Z,5.90
2019-01-02T08:08:46.064Z,5.90
2019-01-02T08:11:37.209Z,5.90
2019-01-02T08:14:35.679Z,5.90
2019-01-02T08:17:10.236Z,5.90
2019-01-02T08:19:41.918Z,5.90
2019-01-02T08:22:23.059Z,6.00
2019-01-02T08:25:12.742Z,6.00
2019-01-02T08:28:02.604Z,6.00
2019-01-02T08:30:53.252Z,6.00
2019-01-02T08:33:30.382Z,5.90
2019-01-02T08:36:17.221Z,5.90
2019-01-02T08:38:51.710Z,5.90
2019-01-02T08:41:29.102Z,5.90
2019-01-02T08:44:09.350Z,5.90
2019-01-02T08:46:47.047Z,6.00
2019-01-02T08:49:27.543Z,6.00
2019-01-02T08:52:15.664Z,6.00
2019-01-02T08:55:05.590Z,6.00
2019-01-02T08:57:56.673Z,6.10
2019-01-02T09:00:47.986Z,6.20
2019-01-02T09:03:19.603Z,6.20
2019-01-02T09:05:55.638Z,6.20
2019-01-02T09:08:32.767Z,6.20
2019-01-02T09:11:29.738Z,6.30
2019-01-02T09:14:17.796Z,6.30
2019-01-02T09:16:57.842Z,6.30
2019-01-02T09:19:38.208Z,6.30
2019-01-02T09:22:27.399Z,6.30
2019-01-02T09:25:16.935Z,6.30
2019-01-02T09:28:00.320Z,6.20
2019-01-02T09:30:58.678Z,6.20
2019-01-02T09:33:41.960Z,6.30
2019-01-02T09:36:18.604Z,6.30
2019-01-02T09:38:50.287Z,6.30
2019-01-02T09:41:25.379Z,6.30
2019-01-02T09:44:28.390Z,6.30
2019-01-02T09:47:11.625Z,6.40
2019-01-02T09:49:46.064Z,6.40
2019-01-02T09:52:20.583Z,6.40
2019-01-02T09:55:04.408Z,6.40
2019-01-02T09:57:36.232Z,6.30
2019-01-02T10:00:30.288Z,6.40
2019-01-02T10:03:11.142Z,6.40
2019-01-02T10:05:45.646Z,6.40
2019-01-02T10:08:29.436Z,6.50
2019-01-02T10:11:23.459Z,6.50
2019-01-02T10:14:28.297Z,6.60
2019-01-02T10:17:25.684Z,6.60
2019-01-02T10:20:03.128Z,6.60
2019-01-02T10:22:52.215Z,6.60
2019-01-02T10:25:47.212Z,6.70
2019-01-02T10:28:51.794Z,6.60
2019-01-02T10:31:32.170Z,6.70
2019-01-02T10:34:18.396Z,6.80
2019-01-02T10:37:07.621Z,6.80
2019-01-02T10:39:48.063Z,6.80
2019-01-02T10:42:52.931Z,6.80
2019-01-02T10:45:54.817Z,6.90
2019-01-02T10:48:44.492Z,6.90
2019-01-02T10:51:32.808Z,6.90
2019-01-02T10:54:29.840Z,7.00
2019-01-02T10:57:01.374Z,7.20
2019-01-02T10:59:41.901Z,7.30
2019-01-02T11:02:16.119Z,7.50
2019-01-02T11:04:50.972Z,7.60
2019-01-02T11:07:34.436Z,7.60
2019-01-02T11:10:20.702Z,7.50
2019-01-02T11:13:13.434Z,7.40
2019-01-02T11:16:10.037Z,7.40
2019-01-02T11:18:41.628Z,7.40
2019-01-02T11:21:41.781Z,7.40
2019-01-02T11:24:22.337Z,7.50
2019-01-02T11:27:12.792Z,7.70
2019-01-02T11:30:10.067Z,7.80
2019-01-02T11:33:00.988Z,7.80
2019-01-02T11:35:38.037Z,8.00
2019-01-02T11:38:18.764Z,8.00
2019-01-02T11:41:10.986Z,8.00
2019-01-02T11:43:58.710Z,8.00
2019-01-02T11:46:27.469Z,8.00
2019-01-02T11:48:56.162Z,8.10
2019-01-02T11:51:24.773Z,8.10
2019-01-02T11:53:56.204Z,8.20
2019-01-02T11:56:24.733Z,8.20
2019-01-02T11:58:53.186Z,8.20
2019-01-02T12:01:21.901Z,8.20
2019-01-02T12:03:50.530Z,8.20
2019-01-02T12:06:19.631Z,8.20
2019-01-02T12:08:48.465Z,8.10
2019-01-02T12:11:16.984Z,8.10
2019-01-02T12:13:46.143Z,8.10
2019-01-02T12:16:14.932Z,8.10
2019-01-02T12:18:43.495Z,8.10
2019-01-02T12:21:12.055Z,8.00
2019-01-02T12:23:40.672Z,7.90
2019-01-02T12:26:09.195Z,7.90
2019-01-02T12:28:37.966Z,8.00
2019-01-02T12:31:06.875Z,8.00
2019-01-02T12:33:35.505Z,8.00
2019-01-02T12:36:04.720Z,8.00
2019-01-02T12:38:33.490Z,8.10
2019-01-02T12:41:01.995Z,8.20
2019-01-02T12:43:30.845Z,8.20
2019-01-02T12:45:59.656Z,8.20
2019-01-02T12:48:28.583Z,8.20
2019-01-02T12:50:57.271Z,8.10
2019-01-02T12:53:26.137Z,8.00
2019-01-02T12:55:55.055Z,8.00
2019-01-02T12:58:23.746Z,8.10
2019-01-02T13:00:55.337Z,8.20
2019-01-02T13:03:55.349Z,8.10
2019-01-02T13:06:35.976Z,8.00
2019-01-02T13:09:25.720Z,8.00
2019-01-02T13:11:57.578Z,8.00
2019-01-02T13:14:40.960Z,8.00
2019-01-02T13:17:21.347Z,8.00
2019-01-02T13:19:52.965Z,8.10
2019-01-02T13:22:30.171Z,8.10
2019-01-02T13:25:05.022Z,8.10
2019-01-02T13:27:36.679Z,8.10
2019-01-02T13:30:33.920Z,8.10
2019-01-02T13:33:20.574Z,8.00
2019-01-02T13:36:07.216Z,8.00
2019-01-02T13:38:38.908Z,7.90
2019-01-02T13:41:16.058Z,7.80
2019-01-02T13:44:08.613Z,7.80
2019-01-02T13:47:00.965Z,7.70
2019-01-02T13:49:47.787Z,7.60
2019-01-02T13:52:16.383Z,7.50
2019-01-02T13:54:45.218Z,7.50
2019-01-02T13:57:14.028Z,7.50
2019-01-02T13:59:43.742Z,7.50
2019-01-02T14:02:12.657Z,7.50
2019-01-02T14:04:43.063Z,7.50
2019-01-02T14:07:11.604Z,7.50
2019-01-02T14:09:40.213Z,7.60
2019-01-02T14:12:09.098Z,7.60
2019-01-02T14:14:37.904Z,7.60
2019-01-02T14:17:06.424Z,7.60
2019-01-02T14:19:35.305Z,7.60
2019-01-02T14:22:04.218Z,7.50
2019-01-02T14:24:32.751Z,7.50
2019-01-02T14:27:01.590Z,7.40
2019-01-02T14:29:30.115Z,7.40
2019-01-02T14:31:58.736Z,7.40
2019-01-02T14:34:27.556Z,7.30
2019-01-02T14:36:56.057Z,7.30
2019-01-02T14:39:25.170Z,7.20
2019-01-02T14:41:53.735Z,7.20
2019-01-02T14:44:22.901Z,7.20
2019-01-02T14:46:51.412Z,7.20
2019-01-02T14:49:20.013Z,7.20
2019-01-02T14:51:48.586Z,7.10
2019-01-02T14:54:17.260Z,7.10
2019-01-02T14:56:46.144Z,7.00
2019-01-02T14:59:15.228Z,6.90
2019-01-02T15:01:43.824Z,6.90
2019-01-02T15:04:12.645Z,6.90
2019-01-02T15:06:41.410Z,6.80
2019-01-02T15:09:10.163Z,6.70
2019-01-02T15:11:39.023Z,6.70
2019-01-02T15:14:07.871Z,6.70
2019-01-02T15:16:36.642Z,6.70
2019-01-02T15:19:05.155Z,6.60
2019-01-02T15:21:33.856Z,6.60
2019-01-02T15:24:02.365Z,6.50
2019-01-02T15:26:30.910Z,6.50
2019-01-02T15:28:59.491Z,6.40
2019-01-02T15:31:27.979Z,6.40
2019-01-02T15:33:56.560Z,6.30
2019-01-02T15:36:25.123Z,6.20
2019-01-02T15:38:53.645Z,6.20
2019-01-02T15:41:22.202Z,6.10
2019-01-02T15:43:50.692Z,6.00
2019-01-02T15:46:19.527Z,6.00
2019-01-02T15:48:47.996Z,6.00
2019-01-02T15:51:16.727Z,5.90
2019-01-02T15:53:45.180Z,5.80
2019-01-02T15:56:13.733Z,5.60
2019-01-02T15:58:42.557Z,5.60
2019-01-02T16:01:11.350Z,5.50
2019-01-02T16:03:40.108Z,5.50
2019-01-02T16:06:08.636Z,5.30
2019-01-02T16:08:37.149Z,5.30
2019-01-02T16:11:05.696Z,5.20
2019-01-02T16:13:34.621Z,5.00
2019-01-02T16:16:03.866Z,4.90
2019-01-02T16:18:32.444Z,4.90
2019-01-02T16:21:01.386Z,4.80
2019-01-02T16:23:30.158Z,4.80
2019-01-02T16:25:59.216Z,4.80
2019-01-02T16:28:28.311Z,4.70
2019-01-02T16:30:56.953Z,4.70
2019-01-02T16:33:25.919Z,4.60
2019-01-02T16:35:54.969Z,4.60
2019-01-02T16:38:23.545Z,4.50
2019-01-02T16:40:52.379Z,4.40
2019-01-02T16:43:21.058Z,4.50
2019-01-02T16:45:49.690Z,4.40
2019-01-02T16:48:18.323Z,4.50
2019-01-02T16:50:47.094Z,4.40
2019-01-02T16:53:15.929Z,4.40
2019-01-02T16:55:44.765Z,4.30
2019-01-02T16:58:13.480Z,4.30
2019-01-02T17:00:42.179Z,4.30
2019-01-02T17:03:11.251Z,4.20
2019-01-02T17:05:39.818Z,4.20
2019-01-02T17:08:08.580Z,4.30
2019-01-02T17:10:37.746Z,4.20
2019-01-02T17:13:06.525Z,4.10
2019-01-02T17:15:35.312Z,4.10
2019-01-02T17:18:04.101Z,4.00
2019-01-02T17:20:33.158Z,4.00
2019-01-02T17:23:01.945Z,3.90
2019-01-02T17:25:30.641Z,3.80
2019-01-02T17:27:59.790Z,3.90
2019-01-02T17:30:28.926Z,3.90
2019-01-02T17:32:58.007Z,4.00
2019-01-02T17:35:26.666Z,3.90
2019-01-02T17:37:55.489Z,3.90
2019-01-02T17:40:24.657Z,3.90
2019-01-02T17:42:53.444Z,3.80
2019-01-02T17:45:22.208Z,3.80
2019-01-02T17:47:50.877Z,3.70
2019-01-02T17:50:19.915Z,3.70
2019-01-02T17:52:49.102Z,3.50
2019-01-02T17:55:17.860Z,3.40
2019-01-02T17:57:46.835Z,3.30
2019-01-02T18:00:15.680Z,3.20
2019-01-02T18:02:44.132Z,3.20
2019-01-02T18:05:12.827Z,3.20
2019-01-02T18:07:41.869Z,3.00
2019-01-02T18:10:10.680Z,2.80
2019-01-02T18:12:39.341Z,2.80
2019-01-02T18:15:08.800Z,2.80
2019-01-02T18:17:38.011Z,2.90
2019-01-02T18:20:09.160Z,2.90
2019-01-02T18:22:37.866Z,2.90
2019-01-02T18:25:06.702Z,2.90
2019-01-02T18:27:35.452Z,2.90
2019-01-02T18:30:06.684Z,2.90
2019-01-02T18:32:35.373Z,2.80
2019-01-02T18:35:04.895Z,2.70
2019-01-02T18:37:33.843Z,2.60
2019-01-02T18:40:03.001Z,2.50
2019-01-02T18:42:32.181Z,2.50
2019-01-02T18:45:00.984Z,2.40
2019-01-02T18:47:29.673Z,2.40
2019-01-02T18:49:58.381Z,2.50
2019-01-02T18:52:27.037Z,2.40
2019-01-02T18:54:56.121Z,2.40
2019-01-02T18:57:25.027Z,2.40
2019-01-02T18:59:54.034Z,2.30
2019-01-02T19:02:22.693Z,2.30
2019-01-02T19:04:51.438Z,2.30
2019-01-02T19:07:20.390Z,2.30
2019-01-02T19:09:49.088Z,2.30
2019-01-02T19:12:18.045Z,2.30
2019-01-02T19:14:46.765Z,2.40
2019-01-02T19:17:15.468Z,2.40
2019-01-02T19:19:44.241Z,2.30
2019-01-02T19:22:13.343Z,2.30
2019-01-02T19:24:41.928Z,2.30
2019-01-02T19:27:10.711Z,2.30
2019-01-02T19:29:39.323Z,2.30
2019-01-02T19:32:08.424Z,2.20
2019-01-02T19:34:36.986Z,2.20
2019-01-02T19:37:05.481Z,2.20
2019-01-02T19:39:34.370Z,2.30
2019-01-02T19:42:03.310Z,2.30
2019-01-02T19:44:32.219Z,2.40
2019-01-02T19:47:00.735Z,2.40
2019-01-02T19:49:29.735Z,2.40
2019-01-02T19:51:58.721Z,2.50
2019-01-02T19:54:27.268Z,2.50
2019-01-02T19:56:55.902Z,2.60
2019-01-02T19:59:24.693Z,2.50
2019-01-02T20:01:53.404Z,2.50
2019-01-02T20:04:22.257Z,2.50
2019-01-02T20:06:50.916Z,2.50
2019-01-02T20:09:19.783Z,2.60
2019-01-02T20:11:48.299Z,2.60
2019-01-02T20:14:16.851Z,2.60
2019-01-02T20:16:45.719Z,2.60
2019-01-02T20:19:14.628Z,2.70
2019-01-02T20:21:43.245Z,2.70
2019-01-02T20:24:11.855Z,2.80
2019-01-02T20:26:40.418Z,2.80
2019-01-02T20:29:08.966Z,2.70
2019-01-02T20:31:37.499Z,2.70
2019-01-02T20:34:06.358Z,2.60
2019-01-02T20:36:40.567Z,2.60
2019-01-02T20:39:07.265Z,2.60
2019-01-02T20:41:35.784Z,2.60
2019-01-02T20:44:04.593Z,2.60
2019-01-02T20:46:33.108Z,2.60
2019-01-02T20:49:01.781Z,2.50
2019-01-02T20:51:30.683Z,2.40
2019-01-02T20:53:59.257Z,2.40
2019-01-02T20:56:28.422Z,2.40
2019-01-02T20:58:57.215Z,2.30
2019-01-02T21:01:25.968Z,2.40
2019-01-02T21:03:54.783Z,2.40
2019-01-02T21:06:23.657Z,2.40
2019-01-02T21:08:52.584Z,2.40
2019-01-02T21:11:21.785Z,2.30
2019-01-02T21:13:50.420Z,2.40
2019-01-02T21:16:19.224Z,2.20
2019-01-02T21:18:48.170Z,2.20
2019-01-02T21:21:16.880Z,2.20
2019-01-02T21:23:45.493Z,2.10
2019-01-02T21:26:13.988Z,2.10
2019-01-02T21:28:42.922Z,2.00
2019-01-02T21:31:11.430Z,2.00
2019-01-02T21:33:40.210Z,1.90
2019-01-02T21:36:08.727Z,1.90
2019-01-02T21:38:37.267Z,1.80
2019-01-02T21:41:06.005Z,1.80
2019-01-02T21:43:35.252Z,1.80
2019-01-02T21:46:03.702Z,1.80
2019-01-02T21:48:32.220Z,1.70
2019-01-02T21:51:00.926Z,1.80
2019-01-02T21:53:29.398Z,1.80
2019-01-02T21:55:57.970Z,1.80
2019-01-02T21:58:26.514Z,1.90
2019-01-02T22:00:56.531Z,1.80
2019-01-02T22:03:25.065Z,1.80
2019-01-02T22:05:53.678Z,1.80
2019-01-02T22:08:22.138Z,1.80
2019-01-02T22:10:50.611Z,1.70
2019-01-02T22:13:19.127Z,1.60
2019-01-02T22:15:47.948Z,1.70
2019-01-02T22:18:16.547Z,1.70
2019-01-02T22:20:45.297Z,1.80
2019-01-02T22:23:13.763Z,1.90
2019-01-02T22:25:42.525Z,1.90
2019-01-02T22:28:10.967Z,2.00
2019-01-02T22:30:39.427Z,2.10
2019-01-02T22:33:08.179Z,2.20
2019-01-02T22:35:36.635Z,2.20
2019-01-02T22:38:05.130Z,2.20
2019-01-02T22:40:33.851Z,2.20
2019-01-02T22:43:02.283Z,2.20
2019-01-02T22:45:31.064Z,2.20
2019-01-02T22:47:59.570Z,2.20
2019-01-02T22:50:28.321Z,2.10
2019-01-02T22:52:56.865Z,2.10
2019-01-02T22:55:25.383Z,2.10
2019-01-02T22:57:54.115Z,2.10
2019-01-02T23:00:29.860Z,2.10
2019-01-02T23:03:00.207Z,2.10
2019-01-02T23:05:30.560Z,2.20
2019-01-02T23:08:16.597Z,2.30
2019-01-02T23:10:58.767Z,2.20
2019-01-02T23:13:40.896Z,2.20
2019-01-02T23:16:13.980Z,2.20
2019-01-02T23:18:47.017Z,2.20
2019-01-02T23:21:17.119Z,2.10
2019-01-02T23:24:02.624Z,2.00
2019-01-02T23:26:38.124Z,2.00
2019-01-02T23:29:23.053Z,2.10
2019-01-02T23:32:09.179Z,2.10
2019-01-02T23:34:55.815Z,2.20
2019-01-02T23:37:34.796Z,2.40
2019-01-02T23:40:05.930Z,2.40
2019-01-02T23:42:36.271Z,2.50
2019-01-02T23:45:18.460Z,2.60
2019-01-02T23:47:48.539Z,2.60
2019-01-02T23:50:35.158Z,2.60
2019-01-02T23:53:13.980Z,2.70
2019-01-02T23:55:44.091Z,2.80
2019-01-02T23:58:30.703Z,2.80
